Terminal Aerodrome Forecast
Issued by NWS

Home | Current Version | Previous Version | Text Only | Print | Product List | Glossary On
Versions: 1 2 3 4 5 6 7 8 9 10 11 12 13 14 15 16 17 18 19 20 21 22 23 24 25 26
000
FTUS44 KHGX 030300 AAB
TAFIAH
TAF AMD
KIAH 030300Z 0303/0406 08012G19KT P6SM VCSH OVC024
      TEMPO 0303/0307 4SM -SHRA BR SCT010 OVC020
     FM030700 09013G20KT 6SM -SHRA BR SCT010 OVC020
     FM031100 07014KT 4SM SHRA BR SCT007 OVC015
     FM031800 11012KT 3SM TSRA BR SCT004 BKN007 OVC012CB
     FM040000 09011KT 4SM -SHRA BR SCT004 BKN007 OVC012=

USA.gov is the U.S. government's official web portal to all federal, state and local government web resources and services.